sensor_id;sensor_type;location;lat;lon;timestamp;temperature;humidity
22680;DHT22;11507;44.858;10.374;2023-04-25T00:00:41;10.00;99.90
22680;DHT22;11507;44.858;10.374;2023-04-25T00:03:07;10.00;99.90
22680;DHT22;11507;44.858;10.374;2023-04-25T00:05:34;10.00;99.90
22680;DHT22;11507;44.858;10.374;2023-04-25T00:08:02;10.00;99.90
22680;DHT22;11507;44.858;10.374;2023-04-25T00:10:29;10.00;99.90
22680;DHT22;11507;44.858;10.374;2023-04-25T00:12:55;10.00;99.90
22680;DHT22;11507;44.858;10.374;2023-04-25T00:15:21;10.00;99.90
22680;DHT22;11507;44.858;10.374;2023-04-25T00:17:47;10.00;99.90
22680;DHT22;11507;44.858;10.374;2023-04-25T00:20:12;10.00;99.90
22680;DHT22;11507;44.858;10.374;2023-04-25T00:22:38;10.00;99.90
22680;DHT22;11507;44.858;10.374;2023-04-25T00:25:05;10.00;99.90
22680;DHT22;11507;44.858;10.374;2023-04-25T00:27:30;9.90;99.90
22680;DHT22;11507;44.858;10.374;2023-04-25T00:29:56;9.80;99.90
22680;DHT22;11507;44.858;10.374;2023-04-25T00:32:22;9.60;99.90
22680;DHT22;11507;44.858;10.374;2023-04-25T00:34:47;9.50;99.90
22680;DHT22;11507;44.858;10.374;2023-04-25T00:37:13;9.40;99.90
22680;DHT22;11507;44.858;10.374;2023-04-25T00:39:39;9.30;99.90
22680;DHT22;11507;44.858;10.374;2023-04-25T00:42:05;9.20;99.90
22680;DHT22;11507;44.858;10.374;2023-04-25T00:44:31;9.10;99.90
22680;DHT22;11507;44.858;10.374;2023-04-25T00:46:57;9.00;99.90
22680;DHT22;11507;44.858;10.374;2023-04-25T00:49:23;8.90;99.90
22680;DHT22;11507;44.858;10.374;2023-04-25T00:51:49;8.90;99.90
22680;DHT22;11507;44.858;10.374;2023-04-25T00:54:17;8.90;99.90
22680;DHT22;11507;44.858;10.374;2023-04-25T00:56:44;8.90;99.90
22680;DHT22;11507;44.858;10.374;2023-04-25T00:59:10;8.90;99.90
22680;DHT22;11507;44.858;10.374;2023-04-25T01:01:38;9.10;99.90
22680;DHT22;11507;44.858;10.374;2023-04-25T01:04:04;9.10;99.90
22680;DHT22;11507;44.858;10.374;2023-04-25T01:06:30;9.20;99.90
22680;DHT22;11507;44.858;10.374;2023-04-25T01:08:59;9.20;99.90
22680;DHT22;11507;44.858;10.374;2023-04-25T01:11:25;9.20;99.90
22680;DHT22;11507;44.858;10.374;2023-04-25T01:13:51;9.20;99.90
22680;DHT22;11507;44.858;10.374;2023-04-25T01:16:17;9.20;99.90
22680;DHT22;11507;44.858;10.374;2023-04-25T01:18:45;9.10;99.90
22680;DHT22;11507;44.858;10.374;2023-04-25T01:21:11;9.10;99.90
22680;DHT22;11507;44.858;10.374;2023-04-25T01:23:39;9.10;99.90
22680;DHT22;11507;44.858;10.374;2023-04-25T01:26:06;9.10;99.90
22680;DHT22;11507;44.858;10.374;2023-04-25T01:28:32;9.10;99.90
22680;DHT22;11507;44.858;10.374;2023-04-25T01:30:58;9.00;99.90
22680;DHT22;11507;44.858;10.374;2023-04-25T01:33:25;9.00;99.90
22680;DHT22;11507;44.858;10.374;2023-04-25T01:35:50;9.00;99.90
22680;DHT22;11507;44.858;10.374;2023-04-25T01:38:19;9.00;99.90
22680;DHT22;11507;44.858;10.374;2023-04-25T01:40:45;9.10;99.90
22680;DHT22;11507;44.858;10.374;2023-04-25T01:43:13;9.10;99.90
22680;DHT22;11507;44.858;10.374;2023-04-25T01:45:40;9.10;99.90
22680;DHT22;11507;44.858;10.374;2023-04-25T01:48:08;9.00;99.90
22680;DHT22;11507;44.858;10.374;2023-04-25T01:50:37;9.00;99.90
22680;DHT22;11507;44.858;10.374;2023-04-25T01:53:04;9.00;99.90
22680;DHT22;11507;44.858;10.374;2023-04-25T01:55:29;8.90;99.90
22680;DHT22;11507;44.858;10.374;2023-04-25T01:58:02;8.90;99.90
22680;DHT22;11507;44.858;10.374;2023-04-25T02:00:50;9.00;99.90
22680;DHT22;11507;44.858;10.374;2023-04-25T02:03:19;9.00;99.90
22680;DHT22;11507;44.858;10.374;2023-04-25T02:05:46;9.00;99.90
22680;DHT22;11507;44.858;10.374;2023-04-25T02:08:13;9.00;99.90
22680;DHT22;11507;44.858;10.374;2023-04-25T02:10:39;9.00;99.90
22680;DHT22;11507;44.858;10.374;2023-04-25T02:13:14;9.00;99.90
22680;DHT22;11507;44.858;10.374;2023-04-25T02:15:48;9.00;99.90
22680;DHT22;11507;44.858;10.374;2023-04-25T02:18:16;9.00;99.90
22680;DHT22;11507;44.858;10.374;2023-04-25T02:20:43;9.10;99.90
22680;DHT22;11507;44.858;10.374;2023-04-25T02:23:08;9.20;99.90
22680;DHT22;11507;44.858;10.374;2023-04-25T02:25:34;9.20;99.90
22680;DHT22;11507;44.858;10.374;2023-04-25T02:28:00;9.20;99.90
22680;DHT22;11507;44.858;10.374;2023-04-25T02:30:26;9.10;99.90
22680;DHT22;11507;44.858;10.374;2023-04-25T02:32:51;9.10;99.90
22680;DHT22;11507;44.858;10.374;2023-04-25T02:35:17;9.00;99.90
22680;DHT22;11507;44.858;10.374;2023-04-25T02:37:43;9.10;99.90
22680;DHT22;11507;44.858;10.374;2023-04-25T02:40:09;9.00;99.90
22680;DHT22;11507;44.858;10.374;2023-04-25T02:42:35;9.00;99.90
22680;DHT22;11507;44.858;10.374;2023-04-25T02:45:01;9.00;99.90
22680;DHT22;11507;44.858;10.374;2023-04-25T02:47:27;9.00;99.90
22680;DHT22;11507;44.858;10.374;2023-04-25T02:49:53;9.00;99.90
22680;DHT22;11507;44.858;10.374;2023-04-25T02:52:20;8.90;99.90
22680;DHT22;11507;44.858;10.374;2023-04-25T02:54:53;8.80;99.90
22680;DHT22;11507;44.858;10.374;2023-04-25T02:57:19;8.70;99.90
22680;DHT22;11507;44.858;10.374;2023-04-25T02:59:45;8.60;99.90
22680;DHT22;11507;44.858;10.374;2023-04-25T03:02:11;8.60;99.90
22680;DHT22;11507;44.858;10.374;2023-04-25T03:04:36;8.50;99.90
22680;DHT22;11507;44.858;10.374;2023-04-25T03:07:02;8.40;99.90
22680;DHT22;11507;44.858;10.374;2023-04-25T03:09:28;8.40;99.90
22680;DHT22;11507;44.858;10.374;2023-04-25T03:11:53;8.40;99.90
22680;DHT22;11507;44.858;10.374;2023-04-25T03:14:19;8.30;99.90
22680;DHT22;11507;44.858;10.374;2023-04-25T03:16:46;8.30;99.90
22680;DHT22;11507;44.858;10.374;2023-04-25T03:19:12;8.30;99.90
22680;DHT22;11507;44.858;10.374;2023-04-25T03:21:37;8.20;99.90
22680;DHT22;11507;44.858;10.374;2023-04-25T03:24:03;8.10;99.90
22680;DHT22;11507;44.858;10.374;2023-04-25T03:26:30;8.00;99.90
22680;DHT22;11507;44.858;10.374;2023-04-25T03:28:56;8.00;99.90
22680;DHT22;11507;44.858;10.374;2023-04-25T03:31:22;8.10;99.90
22680;DHT22;11507;44.858;10.374;2023-04-25T03:33:48;8.10;99.90
22680;DHT22;11507;44.858;10.374;2023-04-25T03:36:14;8.10;99.90
22680;DHT22;11507;44.858;10.374;2023-04-25T03:38:39;8.10;99.90
22680;DHT22;11507;44.858;10.374;2023-04-25T03:41:07;8.00;99.90
22680;DHT22;11507;44.858;10.374;2023-04-25T03:43:40;7.90;99.90
22680;DHT22;11507;44.858;10.374;2023-04-25T03:46:09;7.80;99.90
22680;DHT22;11507;44.858;10.374;2023-04-25T03:48:36;7.60;99.90
22680;DHT22;11507;44.858;10.374;2023-04-25T03:51:02;7.60;99.90
22680;DHT22;11507;44.858;10.374;2023-04-25T03:53:30;7.50;99.90
22680;DHT22;11507;44.858;10.374;2023-04-25T03:56:24;7.40;99.90
22680;DHT22;11507;44.858;10.374;2023-04-25T03:58:58;7.40;99.90
22680;DHT22;11507;44.858;10.374;2023-04-25T04:01:25;7.30;99.90
22680;DHT22;11507;44.858;10.374;2023-04-25T04:03:52;7.30;99.90
22680;DHT22;11507;44.858;10.374;2023-04-25T04:06:17;7.20;99.90
22680;DHT22;11507;44.858;10.374;2023-04-25T04:08:48;7.10;99.90
22680;DHT22;11507;44.858;10.374;2023-04-25T04:11:14;7.00;99.90
22680;DHT22;11507;44.858;10.374;2023-04-25T04:13:39;7.00;99.90
22680;DHT22;11507;44.858;10.374;2023-04-25T04:16:06;7.00;99.90
22680;DHT22;11507;44.858;10.374;2023-04-25T04:18:33;6.90;99.90
22680;DHT22;11507;44.858;10.374;2023-04-25T04:21:00;6.90;99.90
22680;DHT22;11507;44.858;10.374;2023-04-25T04:23:29;6.90;99.90
22680;DHT22;11507;44.858;10.374;2023-04-25T04:25:57;7.00;99.90
22680;DHT22;11507;44.858;10.374;2023-04-25T04:28:45;7.10;99.90
22680;DHT22;11507;44.858;10.374;2023-04-25T04:31:31;7.10;99.90
22680;DHT22;11507;44.858;10.374;2023-04-25T04:33:59;7.20;99.90
22680;DHT22;11507;44.858;10.374;2023-04-25T04:36:24;7.30;99.90
22680;DHT22;11507;44.858;10.374;2023-04-25T04:38:52;7.30;99.90
22680;DHT22;11507;44.858;10.374;2023-04-25T04:41:50;7.50;99.90
22680;DHT22;11507;44.858;10.374;2023-04-25T04:44:41;7.60;99.90
22680;DHT22;11507;44.858;10.374;2023-04-25T04:47:23;7.60;99.90
22680;DHT22;11507;44.858;10.374;2023-04-25T04:50:12;7.80;99.90
22680;DHT22;11507;44.858;10.374;2023-04-25T04:53:00;7.80;99.90
22680;DHT22;11507;44.858;10.374;2023-04-25T04:55:37;7.90;99.90
22680;DHT22;11507;44.858;10.374;2023-04-25T04:58:39;7.90;99.90
22680;DHT22;11507;44.858;10.374;2023-04-25T05:01:23;8.00;99.90
22680;DHT22;11507;44.858;10.374;2023-04-25T05:03:56;8.00;99.90
22680;DHT22;11507;44.858;10.374;2023-04-25T05:07:00;8.00;99.90
22680;DHT22;11507;44.858;10.374;2023-04-25T05:09:49;8.10;99.90
22680;DHT22;11507;44.858;10.374;2023-04-25T05:12:14;8.20;99.90
22680;DHT22;11507;44.858;10.374;2023-04-25T05:15:09;8.20;99.90
22680;DHT22;11507;44.858;10.374;2023-04-25T05:17:55;8.40;99.90
22680;DHT22;11507;44.858;10.374;2023-04-25T05:20:51;8.50;99.90
22680;DHT22;11507;44.858;10.374;2023-04-25T05:23:26;8.60;99.90
22680;DHT22;11507;44.858;10.374;2023-04-25T05:26:22;8.70;99.90
22680;DHT22;11507;44.858;10.374;2023-04-25T05:29:07;8.80;99.90
22680;DHT22;11507;44.858;10.374;2023-04-25T05:31:52;9.00;99.90
22680;DHT22;11507;44.858;10.374;2023-04-25T05:34:18;9.20;99.90
22680;DHT22;11507;44.858;10.374;2023-04-25T05:36:59;9.30;99.90
22680;DHT22;11507;44.858;10.374;2023-04-25T05:39:25;9.50;99.90
22680;DHT22;11507;44.858;10.374;2023-04-25T05:42:12;9.60;99.90
22680;DHT22;11507;44.858;10.374;2023-04-25T05:45:00;9.60;99.90
22680;DHT22;11507;44.858;10.374;2023-04-25T05:47:50;9.70;99.90
22680;DHT22;11507;44.858;10.374;2023-04-25T05:50:34;9.80;99.90
22680;DHT22;11507;44.858;10.374;2023-04-25T05:53:10;10.00;99.90
22680;DHT22;11507;44.858;10.374;2023-04-25T05:55:39;10.10;99.90
22680;DHT22;11507;44.858;10.374;2023-04-25T05:58:19;10.20;99.90
22680;DHT22;11507;44.858;10.374;2023-04-25T06:00:45;10.30;99.90
22680;DHT22;11507;44.858;10.374;2023-04-25T06:03:12;10.50;99.90
22680;DHT22;11507;44.858;10.374;2023-04-25T06:05:43;10.60;99.90
22680;DHT22;11507;44.858;10.374;2023-04-25T06:08:09;10.80;99.90
22680;DHT22;11507;44.858;10.374;2023-04-25T06:10:38;10.90;99.90
22680;DHT22;11507;44.858;10.374;2023-04-25T06:13:05;11.10;99.90
22680;DHT22;11507;44.858;10.374;2023-04-25T06:15:33;11.30;99.90
22680;DHT22;11507;44.858;10.374;2023-04-25T06:18:01;11.50;99.90
22680;DHT22;11507;44.858;10.374;2023-04-25T06:20:26;11.70;99.90
22680;DHT22;11507;44.858;10.374;2023-04-25T06:22:55;11.80;99.90
22680;DHT22;11507;44.858;10.374;2023-04-25T06:25:30;12.10;99.90
22680;DHT22;11507;44.858;10.374;2023-04-25T06:27:56;12.30;99.90
22680;DHT22;11507;44.858;10.374;2023-04-25T06:30:22;12.40;99.90
22680;DHT22;11507;44.858;10.374;2023-04-25T06:32:57;12.60;99.90
22680;DHT22;11507;44.858;10.374;2023-04-25T06:35:23;12.80;99.90
22680;DHT22;11507;44.858;10.374;2023-04-25T06:37:49;13.00;99.90
22680;DHT22;11507;44.858;10.374;2023-04-25T06:40:18;13.10;99.90
22680;DHT22;11507;44.858;10.374;2023-04-25T06:42:44;13.20;99.90
22680;DHT22;11507;44.858;10.374;2023-04-25T06:45:45;13.40;99.90
22680;DHT22;11507;44.858;10.374;2023-04-25T06:48:12;13.70;99.90
22680;DHT22;11507;44.858;10.374;2023-04-25T06:50:38;14.00;99.90
22680;DHT22;11507;44.858;10.374;2023-04-25T06:53:04;14.20;99.90
22680;DHT22;11507;44.858;10.374;2023-04-25T06:55:30;14.40;99.90
22680;DHT22;11507;44.858;10.374;2023-04-25T06:58:07;14.60;99.90
22680;DHT22;11507;44.858;10.374;2023-04-25T07:00:57;14.70;99.90
22680;DHT22;11507;44.858;10.374;2023-04-25T07:03:26;14.60;99.90
22680;DHT22;11507;44.858;10.374;2023-04-25T07:05:56;14.60;99.90
22680;DHT22;11507;44.858;10.374;2023-04-25T07:08:24;14.70;99.90
22680;DHT22;11507;44.858;10.374;2023-04-25T07:10:51;14.70;99.90
22680;DHT22;11507;44.858;10.374;2023-04-25T07:13:17;14.70;99.90
22680;DHT22;11507;44.858;10.374;2023-04-25T07:15:43;14.70;99.90
22680;DHT22;11507;44.858;10.374;2023-04-25T07:18:11;14.60;99.90
22680;DHT22;11507;44.858;10.374;2023-04-25T07:20:36;14.60;99.90
22680;DHT22;11507;44.858;10.374;2023-04-25T07:23:02;14.60;99.90
22680;DHT22;11507;44.858;10.374;2023-04-25T07:25:28;14.50;99.90
22680;DHT22;11507;44.858;10.374;2023-04-25T07:27:54;14.50;99.90
22680;DHT22;11507;44.858;10.374;2023-04-25T07:30:22;14.60;99.90
22680;DHT22;11507;44.858;10.374;2023-04-25T07:32:48;14.60;99.90
22680;DHT22;11507;44.858;10.374;2023-04-25T07:35:14;14.70;99.90
22680;DHT22;11507;44.858;10.374;2023-04-25T07:37:41;14.90;99.90
22680;DHT22;11507;44.858;10.374;2023-04-25T07:40:10;15.00;99.90
22680;DHT22;11507;44.858;10.374;2023-04-25T07:42:42;15.20;99.90
22680;DHT22;11507;44.858;10.374;2023-04-25T07:45:09;15.30;99.90
22680;DHT22;11507;44.858;10.374;2023-04-25T07:47:36;15.30;99.90
22680;DHT22;11507;44.858;10.374;2023-04-25T07:50:03;15.30;99.90
22680;DHT22;11507;44.858;10.374;2023-04-25T07:52:32;15.30;99.90
22680;DHT22;11507;44.858;10.374;2023-04-25T07:55:08;15.30;99.90
22680;DHT22;11507;44.858;10.374;2023-04-25T07:57:51;15.60;99.90
22680;DHT22;11507;44.858;10.374;2023-04-25T08:00:17;16.00;99.90
22680;DHT22;11507;44.858;10.374;2023-04-25T08:02:51;16.20;99.90
22680;DHT22;11507;44.858;10.374;2023-04-25T08:05:17;16.20;99.90
22680;DHT22;11507;44.858;10.374;2023-04-25T08:07:48;16.30;99.90
22680;DHT22;11507;44.858;10.374;2023-04-25T08:10:13;16.30;99.90
22680;DHT22;11507;44.858;10.374;2023-04-25T08:12:41;16.40;99.90
22680;DHT22;11507;44.858;10.374;2023-04-25T08:15:07;16.60;99.90
22680;DHT22;11507;44.858;10.374;2023-04-25T08:17:37;16.80;99.90
22680;DHT22;11507;44.858;10.374;2023-04-25T08:20:03;17.00;99.90
22680;DHT22;11507;44.858;10.374;2023-04-25T08:22:31;17.20;99.90
22680;DHT22;11507;44.858;10.374;2023-04-25T08:25:13;17.20;99.90
22680;DHT22;11507;44.858;10.374;2023-04-25T08:27:40;17.50;99.90
22680;DHT22;11507;44.858;10.374;2023-04-25T08:30:06;17.40;99.90
22680;DHT22;11507;44.858;10.374;2023-04-25T08:32:34;17.20;99.90
22680;DHT22;11507;44.858;10.374;2023-04-25T08:35:15;17.30;99.90
22680;DHT22;11507;44.858;10.374;2023-04-25T08:37:43;17.40;99.90
22680;DHT22;11507;44.858;10.374;2023-04-25T08:40:14;17.50;99.90
22680;DHT22;11507;44.858;10.374;2023-04-25T08:42:43;17.50;99.90
22680;DHT22;11507;44.858;10.374;2023-04-25T08:45:09;17.70;99.90
22680;DHT22;11507;44.858;10.374;2023-04-25T08:47:38;17.90;99.90
22680;DHT22;11507;44.858;10.374;2023-04-25T08:50:05;17.90;99.90
22680;DHT22;11507;44.858;10.374;2023-04-25T08:52:42;17.90;99.90
22680;DHT22;11507;44.858;10.374;2023-04-25T08:55:10;17.90;99.90
22680;DHT22;11507;44.858;10.374;2023-04-25T08:57:38;18.30;99.90
22680;DHT22;11507;44.858;10.374;2023-04-25T09:00:05;18.40;99.90
22680;DHT22;11507;44.858;10.374;2023-04-25T09:02:35;18.20;99.90
22680;DHT22;11507;44.858;10.374;2023-04-25T09:05:03;18.10;99.90
22680;DHT22;11507;44.858;10.374;2023-04-25T09:07:30;18.10;99.90
22680;DHT22;11507;44.858;10.374;2023-04-25T09:09:56;17.80;99.90
22680;DHT22;11507;44.858;10.374;2023-04-25T09:12:24;18.10;99.90
22680;DHT22;11507;44.858;10.374;2023-04-25T09:15:02;18.40;99.90
22680;DHT22;11507;44.858;10.374;2023-04-25T09:17:45;18.60;99.90
22680;DHT22;11507;44.858;10.374;2023-04-25T09:20:12;18.80;99.90
22680;DHT22;11507;44.858;10.374;2023-04-25T09:22:40;18.80;99.90
22680;DHT22;11507;44.858;10.374;2023-04-25T09:25:08;18.70;99.90
22680;DHT22;11507;44.858;10.374;2023-04-25T09:27:34;18.80;99.90
22680;DHT22;11507;44.858;10.374;2023-04-25T09:30:16;18.80;99.90
22680;DHT22;11507;44.858;10.374;2023-04-25T09:33:06;18.90;99.90
22680;DHT22;11507;44.858;10.374;2023-04-25T09:35:53;19.10;99.90
22680;DHT22;11507;44.858;10.374;2023-04-25T09:38:45;19.10;99.90
22680;DHT22;11507;44.858;10.374;2023-04-25T09:41:24;19.20;99.90
22680;DHT22;11507;44.858;10.374;2023-04-25T09:43:52;19.40;99.90
22680;DHT22;11507;44.858;10.374;2023-04-25T09:46:24;19.50;99.90
22680;DHT22;11507;44.858;10.374;2023-04-25T09:48:54;19.90;99.90
22680;DHT22;11507;44.858;10.374;2023-04-25T09:51:31;19.90;99.90
22680;DHT22;11507;44.858;10.374;2023-04-25T09:53:59;19.90;99.60
22680;DHT22;11507;44.858;10.374;2023-04-25T09:56:38;19.80;99.90
22680;DHT22;11507;44.858;10.374;2023-04-25T09:59:06;19.90;99.90
22680;DHT22;11507;44.858;10.374;2023-04-25T10:01:34;20.10;99.90
22680;DHT22;11507;44.858;10.374;2023-04-25T10:04:08;20.50;99.00
22680;DHT22;11507;44.858;10.374;2023-04-25T10:06:42;21.00;99.90
22680;DHT22;11507;44.858;10.374;2023-04-25T10:09:09;21.10;96.70
22680;DHT22;11507;44.858;10.374;2023-04-25T10:11:35;20.70;97.50
22680;DHT22;11507;44.858;10.374;2023-04-25T10:14:02;20.70;98.00
22680;DHT22;11507;44.858;10.374;2023-04-25T10:16:29;20.70;98.30
22680;DHT22;11507;44.858;10.374;2023-04-25T10:18:55;20.90;97.90
22680;DHT22;11507;44.858;10.374;2023-04-25T10:21:21;21.10;97.60
22680;DHT22;11507;44.858;10.374;2023-04-25T10:23:49;21.10;98.70
22680;DHT22;11507;44.858;10.374;2023-04-25T10:26:15;21.10;97.80
22680;DHT22;11507;44.858;10.374;2023-04-25T10:28:55;21.30;97.30
22680;DHT22;11507;44.858;10.374;2023-04-25T10:31:21;21.50;97.90
22680;DHT22;11507;44.858;10.374;2023-04-25T10:33:47;21.60;97.10
22680;DHT22;11507;44.858;10.374;2023-04-25T10:36:17;21.60;97.00
22680;DHT22;11507;44.858;10.374;2023-04-25T10:38:45;21.60;95.70
22680;DHT22;11507;44.858;10.374;2023-04-25T10:41:11;21.30;95.30
22680;DHT22;11507;44.858;10.374;2023-04-25T10:43:39;21.20;95.70
22680;DHT22;11507;44.858;10.374;2023-04-25T10:46:18;21.30;96.20
22680;DHT22;11507;44.858;10.374;2023-04-25T10:48:50;21.30;97.40
22680;DHT22;11507;44.858;10.374;2023-04-25T10:53:43;21.80;96.60
22680;DHT22;11507;44.858;10.374;2023-04-25T10:56:16;21.90;95.00
22680;DHT22;11507;44.858;10.374;2023-04-25T10:58:43;21.60;96.90
22680;DHT22;11507;44.858;10.374;2023-04-25T11:01:09;21.60;97.20
22680;DHT22;11507;44.858;10.374;2023-04-25T11:03:43;21.60;95.80
22680;DHT22;11507;44.858;10.374;2023-04-25T11:06:12;21.90;95.70
22680;DHT22;11507;44.858;10.374;2023-04-25T11:08:47;22.20;96.40
22680;DHT22;11507;44.858;10.374;2023-04-25T11:11:13;22.90;94.90
22680;DHT22;11507;44.858;10.374;2023-04-25T11:13:40;23.10;95.60
22680;DHT22;11507;44.858;10.374;2023-04-25T11:16:09;23.50;93.80
22680;DHT22;11507;44.858;10.374;2023-04-25T11:18:35;23.70;93.70
22680;DHT22;11507;44.858;10.374;2023-04-25T11:21:02;22.80;91.90
22680;DHT22;11507;44.858;10.374;2023-04-25T11:23:28;22.40;95.00
22680;DHT22;11507;44.858;10.374;2023-04-25T11:25:55;22.30;93.40
22680;DHT22;11507;44.858;10.374;2023-04-25T11:28:21;22.10;93.40
22680;DHT22;11507;44.858;10.374;2023-04-25T11:30:49;21.90;93.70
22680;DHT22;11507;44.858;10.374;2023-04-25T11:33:16;22.00;94.90
22680;DHT22;11507;44.858;10.374;2023-04-25T11:35:42;22.70;93.30
22680;DHT22;11507;44.858;10.374;2023-04-25T11:38:08;23.40;93.00
22680;DHT22;11507;44.858;10.374;2023-04-25T11:40:35;23.60;91.00
22680;DHT22;11507;44.858;10.374;2023-04-25T11:43:01;24.20;92.10
22680;DHT22;11507;44.858;10.374;2023-04-25T11:45:27;24.20;90.30
22680;DHT22;11507;44.858;10.374;2023-04-25T11:47:53;24.30;92.20
22680;DHT22;11507;44.858;10.374;2023-04-25T11:50:19;24.70;87.00
22680;DHT22;11507;44.858;10.374;2023-04-25T11:52:46;25.00;85.70
22680;DHT22;11507;44.858;10.374;2023-04-25T11:55:14;25.00;88.30
22680;DHT22;11507;44.858;10.374;2023-04-25T11:57:40;25.80;88.60
22680;DHT22;11507;44.858;10.374;2023-04-25T12:02:40;25.70;82.60
22680;DHT22;11507;44.858;10.374;2023-04-25T12:05:08;25.10;81.30
22680;DHT22;11507;44.858;10.374;2023-04-25T12:07:35;25.10;84.50
22680;DHT22;11507;44.858;10.374;2023-04-25T12:10:07;25.30;81.90
22680;DHT22;11507;44.858;10.374;2023-04-25T12:12:34;25.30;81.90
22680;DHT22;11507;44.858;10.374;2023-04-25T12:17:35;26.50;81.20
22680;DHT22;11507;44.858;10.374;2023-04-25T12:20:14;26.70;75.30
22680;DHT22;11507;44.858;10.374;2023-04-25T12:22:41;26.80;76.70
22680;DHT22;11507;44.858;10.374;2023-04-25T12:25:33;27.10;76.40
22680;DHT22;11507;44.858;10.374;2023-04-25T12:28:10;27.30;72.70
22680;DHT22;11507;44.858;10.374;2023-04-25T12:33:27;27.50;75.20
22680;DHT22;11507;44.858;10.374;2023-04-25T12:35:53;28.20;73.30
22680;DHT22;11507;44.858;10.374;2023-04-25T12:38:29;28.40;68.00
22680;DHT22;11507;44.858;10.374;2023-04-25T12:40:56;28.10;69.30
22680;DHT22;11507;44.858;10.374;2023-04-25T12:43:22;28.10;73.10
22680;DHT22;11507;44.858;10.374;2023-04-25T12:45:48;28.50;68.80
22680;DHT22;11507;44.858;10.374;2023-04-25T12:48:17;28.60;66.90
22680;DHT22;11507;44.858;10.374;2023-04-25T12:50:43;28.40;67.70
22680;DHT22;11507;44.858;10.374;2023-04-25T12:53:09;28.80;66.10
22680;DHT22;11507;44.858;10.374;2023-04-25T12:55:35;29.30;67.30
22680;DHT22;11507;44.858;10.374;2023-04-25T12:58:02;29.40;61.10
22680;DHT22;11507;44.858;10.374;2023-04-25T13:00:29;28.60;62.40
22680;DHT22;11507;44.858;10.374;2023-04-25T13:02:55;27.30;65.00
22680;DHT22;11507;44.858;10.374;2023-04-25T13:05:21;27.00;68.00
22680;DHT22;11507;44.858;10.374;2023-04-25T13:07:46;27.90;69.50
22680;DHT22;11507;44.858;10.374;2023-04-25T13:10:12;29.00;64.70
22680;DHT22;11507;44.858;10.374;2023-04-25T13:12:39;29.40;63.70
22680;DHT22;11507;44.858;10.374;2023-04-25T13:15:05;29.10;64.80
22680;DHT22;11507;44.858;10.374;2023-04-25T13:17:32;29.50;63.60
22680;DHT22;11507;44.858;10.374;2023-04-25T13:19:59;30.20;63.00
22680;DHT22;11507;44.858;10.374;2023-04-25T13:22:24;30.10;58.60
22680;DHT22;11507;44.858;10.374;2023-04-25T13:24:50;29.50;61.50
22680;DHT22;11507;44.858;10.374;2023-04-25T13:27:16;29.40;60.00
22680;DHT22;11507;44.858;10.374;2023-04-25T13:29:42;29.50;60.30
22680;DHT22;11507;44.858;10.374;2023-04-25T13:32:08;29.70;60.30
22680;DHT22;11507;44.858;10.374;2023-04-25T13:34:34;29.80;59.50
22680;DHT22;11507;44.858;10.374;2023-04-25T13:37:00;30.40;58.20
22680;DHT22;11507;44.858;10.374;2023-04-25T13:39:26;30.90;58.60
22680;DHT22;11507;44.858;10.374;2023-04-25T13:41:51;30.30;57.90
22680;DHT22;11507;44.858;10.374;2023-04-25T13:44:17;29.90;57.10
22680;DHT22;11507;44.858;10.374;2023-04-25T13:46:43;28.50;58.10
22680;DHT22;11507;44.858;10.374;2023-04-25T13:49:09;27.60;60.80
22680;DHT22;11507;44.858;10.374;2023-04-25T13:51:35;26.60;62.50
22680;DHT22;11507;44.858;10.374;2023-04-25T13:54:01;26.60;65.20
22680;DHT22;11507;44.858;10.374;2023-04-25T13:56:27;27.50;64.60
22680;DHT22;11507;44.858;10.374;2023-04-25T13:58:53;28.70;63.70
22680;DHT22;11507;44.858;10.374;2023-04-25T14:01:19;29.60;59.50
22680;DHT22;11507;44.858;10.374;2023-04-25T14:03:46;29.40;58.90
22680;DHT22;11507;44.858;10.374;2023-04-25T14:06:12;28.10;59.10
22680;DHT22;11507;44.858;10.374;2023-04-25T14:08:39;27.90;62.60
22680;DHT22;11507;44.858;10.374;2023-04-25T14:11:05;28.20;64.50
22680;DHT22;11507;44.858;10.374;2023-04-25T14:13:32;28.30;62.80
22680;DHT22;11507;44.858;10.374;2023-04-25T14:15:58;27.50;61.30
22680;DHT22;11507;44.858;10.374;2023-04-25T14:18:24;26.90;63.40
22680;DHT22;11507;44.858;10.374;2023-04-25T14:20:50;26.00;64.20
22680;DHT22;11507;44.858;10.374;2023-04-25T14:23:16;25.60;67.50
22680;DHT22;11507;44.858;10.374;2023-04-25T14:25:43;26.00;68.40
22680;DHT22;11507;44.858;10.374;2023-04-25T14:28:09;26.90;66.00
22680;DHT22;11507;44.858;10.374;2023-04-25T14:30:36;27.80;63.80
22680;DHT22;11507;44.858;10.374;2023-04-25T14:33:02;28.20;62.80
22680;DHT22;11507;44.858;10.374;2023-04-25T14:35:28;28.70;61.80
22680;DHT22;11507;44.858;10.374;2023-04-25T14:37:55;28.80;60.60
22680;DHT22;11507;44.858;10.374;2023-04-25T14:40:22;28.70;62.20
22680;DHT22;11507;44.858;10.374;2023-04-25T14:42:48;28.50;60.90
22680;DHT22;11507;44.858;10.374;2023-04-25T14:45:15;27.60;61.40
22680;DHT22;11507;44.858;10.374;2023-04-25T14:47:40;26.10;65.90
22680;DHT22;11507;44.858;10.374;2023-04-25T14:50:06;26.20;68.40
22680;DHT22;11507;44.858;10.374;2023-04-25T14:52:32;26.10;67.10
22680;DHT22;11507;44.858;10.374;2023-04-25T14:54:58;26.10;68.10
22680;DHT22;11507;44.858;10.374;2023-04-25T14:57:25;26.20;66.60
22680;DHT22;11507;44.858;10.374;2023-04-25T14:59:51;26.60;66.00
22680;DHT22;11507;44.858;10.374;2023-04-25T15:02:18;26.80;66.90
22680;DHT22;11507;44.858;10.374;2023-04-25T15:04:44;26.80;66.10
22680;DHT22;11507;44.858;10.374;2023-04-25T15:07:09;26.50;67.20
22680;DHT22;11507;44.858;10.374;2023-04-25T15:09:35;26.70;67.80
22680;DHT22;11507;44.858;10.374;2023-04-25T15:12:01;26.10;67.70
22680;DHT22;11507;44.858;10.374;2023-04-25T15:14:27;25.20;68.80
22680;DHT22;11507;44.858;10.374;2023-04-25T15:16:53;24.00;71.40
22680;DHT22;11507;44.858;10.374;2023-04-25T15:19:19;23.40;73.50
22680;DHT22;11507;44.858;10.374;2023-04-25T15:21:46;22.30;73.70
22680;DHT22;11507;44.858;10.374;2023-04-25T15:24:12;21.10;76.60
22680;DHT22;11507;44.858;10.374;2023-04-25T15:26:39;20.20;79.80
22680;DHT22;11507;44.858;10.374;2023-04-25T15:29:05;19.40;81.90
22680;DHT22;11507;44.858;10.374;2023-04-25T15:31:32;18.60;83.10
22680;DHT22;11507;44.858;10.374;2023-04-25T15:33:57;18.10;85.70
22680;DHT22;11507;44.858;10.374;2023-04-25T15:36:23;17.40;89.10
22680;DHT22;11507;44.858;10.374;2023-04-25T15:38:49;17.00;91.30
22680;DHT22;11507;44.858;10.374;2023-04-25T15:41:15;16.60;92.90
22680;DHT22;11507;44.858;10.374;2023-04-25T15:43:41;16.30;94.80